Latest Weather Observations for St Kilda Harbour RMYS

IDV60801

Issued at 8:05 am EST Thursday 2 October 2014 (issued every 30 minutes, with the page automatically refreshed every 10 minutes)

About weather observations | Map of weather stations | Latest weather observations for VIC | Other Formats
Station Details ID: 086220 Name: ST KILDA HARBOUR - RMYS Lat: -37.86 Lon: 144.96 Height: 6.4 m
Data from the previous 72 hours. | See also: Recent months for locations in Victoria
Date/Time
EST
Temp
°C
App
Temp
°C
Dew
Point
Rel
Hum
%
Delta-T
°C
Wind Press
QNH
hPa
Press
MSL
hPa
Rain
since 9 am
mm
Dir
 
Spd
km/h
Gust
km/h
Spd
kts
Gust
kts
02/08:00am - - - - - W 15 19 8 10 - - -
02/07:30am - - - - - W 19 24 10 13 - - -
02/07:00am - - - - - NW 11 20 6 11 - - -
02/06:30am - - - - - N 6 9 3 5 - - -
02/06:00am - - - - - NNW 6 9 3 5 - - -
02/05:30am - - - - - W 15 22 8 12 - - -
02/05:00am - - - - - W 17 30 9 16 - - -
02/04:30am - - - - - W 15 22 8 12 - - -
02/04:00am - - - - - NW 11 13 6 7 - - -
02/03:30am - - - - - NW 11 17 6 9 - - -
02/03:00am - - - - - NW 15 19 8 10 - - -
02/02:30am - - - - - NW 17 20 9 11 - - -
02/02:00am - - - - - WNW 17 20 9 11 - - -
02/01:30am - - - - - WNW 17 20 9 11 - - -
02/01:00am - - - - - WNW 17 20 9 11 - - -
02/12:30am - - - - - WNW 19 22 10 12 - - -
02/12:00am - - - - - WNW 19 22 10 12 - - -
 
Date/Time
EST
Temp
°C
App
Temp
°C
Dew
Point
Rel
Hum
%
Delta-T
°C
Wind Press
QNH
hPa
Press
MSL
hPa
Rain
since 9 am
mm
Dir
 
Spd
km/h
Gust
km/h
Spd
kts
Gust
kts
01/11:30pm - - - - - WNW 19 22 10 12 - - -
01/11:00pm - - - - - WNW 19 22 10 12 - - -
01/10:30pm - - - - - W 20 24 11 13 - - -
01/10:00pm - - - - - W 24 30 13 16 - - -
01/09:30pm - - - - - WSW 28 33 15 18 - - -
01/09:00pm - - - - - WSW 26 30 14 16 - - -
01/08:30pm - - - - - WSW 26 30 14 16 - - -
01/08:00pm - - - - - WSW 30 35 16 19 - - -
01/07:30pm - - - - - WSW 24 33 13 18 - - -
01/07:00pm - - - - - SSW 19 22 10 12 - - -
01/06:30pm - - - - - S 19 22 10 12 - - -
01/06:00pm - - - - - S 19 22 10 12 - - -
01/05:30pm - - - - - S 17 20 9 11 - - -
01/05:00pm - - - - - S 19 22 10 12 - - -
01/04:30pm - - - - - S 20 26 11 14 - - -
01/04:00pm - - - - - S 19 28 10 15 - - -
01/03:30pm - - - - - SSW 19 24 10 13 - - -
01/03:00pm - - - - - SSW 20 26 11 14 - - -
01/02:30pm - - - - - SSW 32 41 17 22 - - -
01/02:00pm - - - - - SW 24 30 13 16 - - -
01/01:30pm - - - - - SSW 28 32 15 17 - - -
01/01:00pm - - - - - SSW 24 28 13 15 - - -
01/12:30pm - - - - - SSW 20 24 11 13 - - -
01/12:00pm - - - - - SW 30 33 16 18 - - -
01/11:30am - - - - - SW 30 33 16 18 - - -
01/11:00am - - - - - SW 32 39 17 21 - - -
01/10:30am - - - - - SW 32 41 17 22 - - -
01/10:00am - - - - - WSW 35 41 19 22 - - -
01/09:30am - - - - - WSW 37 44 20 24 - - -
01/09:00am - - - - - WSW 30 41 16 22 - - -
01/08:30am - - - - - WSW 30 39 16 21 - - -
01/08:00am - - - - - WSW 26 33 14 18 - - -
01/07:30am - - - - - W 24 32 13 17 - - -
01/07:00am - - - - - W 26 33 14 18 - - -
01/06:30am - - - - - W 30 41 16 22 - - -
01/06:00am - - - - - W 22 30 12 16 - - -
01/05:30am - - - - - W 30 33 16 18 - - -
01/05:00am - - - - - W 30 39 16 21 - - -
01/04:30am - - - - - W 24 32 13 17 - - -
01/04:00am - - - - - W 33 46 18 25 - - -
01/03:30am - - - - - W 35 46 19 25 - - -
01/03:00am - - - - - W 22 32 12 17 - - -
01/02:30am - - - - - W 30 39 16 21 - - -
01/02:00am - - - - - W 26 35 14 19 - - -
01/01:30am - - - - - W 28 35 15 19 - - -
01/01:00am - - - - - W 33 39 18 21 - - -
01/12:30am - - - - - W 33 41 18 22 - - -
01/12:00am - - - - - W 35 46 19 25 - - -
 
Date/Time
EST
Temp
°C
App
Temp
°C
Dew
Point
Rel
Hum
%
Delta-T
°C
Wind Press
QNH
hPa
Press
MSL
hPa
Rain
since 9 am
mm
Dir
 
Spd
km/h
Gust
km/h
Spd
kts
Gust
kts
30/11:30pm - - - - - W 37 50 20 27 - - -
30/11:00pm - - - - - W 41 56 22 30 - - -
30/10:30pm - - - - - W 41 54 22 29 - - -
30/10:00pm - - - - - W 37 46 20 25 - - -
30/09:30pm - - - - - WNW 32 37 17 20 - - -
30/09:00pm - - - - - W 30 35 16 19 - - -
30/08:30pm - - - - - W 26 33 14 18 - - -
30/08:28pm - - - - - W 28 33 15 18 - - -
30/08:15pm - - - - - WSW 39 57 21 31 - - -
30/08:04pm - - - - - WSW 48 63 26 34 - - -
30/08:00pm - - - - - W 37 44 20 24 - - -
30/07:30pm - - - - - W 35 41 19 22 - - -
30/07:00pm - - - - - WSW 39 48 21 26 - - -
30/06:30pm - - - - - WSW 46 63 25 34 - - -
30/06:06pm - - - - - W 44 67 24 36 - - -
30/06:00pm - - - - - W 39 50 21 27 - - -
30/05:30pm - - - - - W 41 50 22 27 - - -
30/05:00pm - - - - - W 43 54 23 29 - - -
30/04:30pm - - - - - W 50 67 27 36 - - -
30/04:26pm - - - - - W 54 61 29 33 - - -
30/04:00pm - - - - - WSW 76 102 41 55 - - -
30/03:30pm - - - - - WSW 70 96 38 52 - - -
30/03:00pm - - - - - WSW 76 98 41 53 - - -
30/02:56pm - - - - - W 78 98 42 53 - - -
30/02:54pm - - - - - W 80 98 43 53 - - -
30/02:30pm - - - - - NW 59 87 32 47 - - -
30/02:00pm - - - - - NW 57 78 31 42 - - -
30/01:42pm - - - - - NNW 52 74 28 40 - - -
30/01:30pm - - - - - NNW 46 63 25 34 - - -
30/01:00pm - - - - - NNW 35 56 19 30 - - -
30/12:31pm - - - - - NNW 39 59 21 32 - - -
30/12:30pm - - - - - NNW 37 54 20 29 - - -
30/12:17pm - - - - - NNW 39 57 21 31 - - -
30/12:00pm - - - - - N 44 59 24 32 - - -
30/11:31am - - - - - N 35 54 19 29 - - -
30/11:30am - - - - - N 37 56 20 30 - - -
30/11:05am - - - - - NNW 39 59 21 32 - - -
30/11:00am - - - - - NNW 37 54 20 29 - - -
30/10:31am - - - - - NNW 35 54 19 29 - - -
30/10:30am - - - - - NNW 33 48 18 26 - - -
30/10:00am - - - - - N 33 46 18 25 - - -
30/09:30am - - - - - N 33 43 18 23 - - -
30/09:00am - - - - - N 28 37 15 20 - - -
30/08:30am - - - - - N 26 39 14 21 - - -
30/08:00am - - - - - N 26 33 14 18 - - -
30/07:30am - - - - - NNW 28 39 15 21 - - -
30/07:00am - - - - - NNW 24 37 13 20 - - -
30/06:30am - - - - - NNW 22 30 12 16 - - -
30/06:00am - - - - - NNW 24 35 13 19 - - -
30/05:30am - - - - - NNW 19 24 10 13 - - -
30/05:00am - - - - - NNW 17 22 9 12 - - -
30/04:30am - - - - - NNW 13 17 7 9 - - -
30/04:00am - - - - - NW 9 11 5 6 - - -
30/03:30am - - - - - WNW 6 7 3 4 - - -
30/03:00am - - - - - WNW 11 13 6 7 - - -
30/02:30am - - - - - NW 9 11 5 6 - - -
30/02:00am - - - - - WNW 13 15 7 8 - - -
30/01:30am - - - - - W 20 26 11 14 - - -
30/01:00am - - - - - N 20 26 11 14 - - -
30/12:30am - - - - - N 20 32 11 17 - - -
30/12:00am - - - - - N 26 37 14 20 - - -
 
Date/Time
EST
Temp
°C
App
Temp
°C
Dew
Point
Rel
Hum
%
Delta-T
°C
Wind Press
QNH
hPa
Press
MSL
hPa
Rain
since 9 am
mm
Dir
 
Spd
km/h
Gust
km/h
Spd
kts
Gust
kts
29/11:30pm - - - - - N 22 33 12 18 - - -
29/11:00pm - - - - - N 22 32 12 17 - - -
29/10:30pm - - - - - N 19 32 10 17 - - -
29/10:00pm - - - - - N 20 30 11 16 - - -
29/09:30pm - - - - - N 20 30 11 16 - - -
29/09:00pm - - - - - N 30 43 16 23 - - -
29/08:30pm - - - - - N 19 32 10 17 - - -
29/08:00pm - - - - - N 20 28 11 15 - - -
29/07:30pm - - - - - N 13 20 7 11 - - -
29/07:00pm - - - - - N 19 28 10 15 - - -
29/06:30pm - - - - - NNW 24 33 13 18 - - -
29/06:00pm - - - - - N 26 35 14 19 - - -
29/05:30pm - - - - - NNW 32 41 17 22 - - -
29/05:00pm - - - - - N 32 43 17 23 - - -
29/04:30pm - - - - - NNW 28 46 15 25 - - -
29/04:16pm - - - - - N 28 48 15 26 - - -
29/04:00pm - - - - - N 32 44 17 24 - - -
29/03:30pm - - - - - NNW 33 44 18 24 - - -
29/03:00pm - - - - - NNW 32 44 17 24 - - -
29/02:30pm - - - - - NNW 28 48 15 26 - - -
29/02:00pm - - - - - NNW 26 37 14 20 - - -
29/01:46pm - - - - - N 30 50 16 27 - - -
29/01:30pm - - - - - N 22 32 12 17 - - -
29/01:00pm - - - - - NNW 28 39 15 21 - - -
29/12:30pm - - - - - NW 26 32 14 17 - - -
29/12:00pm - - - - - NW 26 39 14 21 - - -
29/11:30am - - - - - W 17 26 9 14 - - -
29/11:00am - - - - - W 19 32 10 17 - - -
29/10:30am - - - - - W 17 24 9 13 - - -
29/10:00am - - - - - W 11 15 6 8 - - -
29/09:30am - - - - - WSW 7 19 4 10 - - -
29/09:00am - - - - - WSW 17 20 9 11 - - -
29/08:30am - - - - - W 9 13 5 7 - - -

Other Formats:

Comma delimited format used in spreadsheet applications
http://www.bom.gov.au/fwo/IDV60801/IDV60801.95864.axf

JavaScript Object Notation format (JSON) in row-major order
http://www.bom.gov.au/fwo/IDV60801/IDV60801.95864.json